Rechercher aéroport 
image banner adimage banner adimage banner ad
image banner ad

38CL - Riego Flight Strip

Situé à Verona, United States

ICAO - 38CL, IATA -

Données fournies par Airmate  

Information générale

Coordonnées: N38°45'15" W121°33'47"
Élévation : 21 feet MSL.
Variation magnétique : 16° East
Voir autres Aéroports à California

Données opérationnelles

Special qualification required
Heure actuelle UTC:
Heure actuelle locale:
Météo à : KSMF - Sacramento Intl ( 7 km )
METAR: KSMF 251253Z 15008KT 10SM FEW180 SCT250 17/11 A2987 RMK AO2 SLP114 T01670106 $
TAF: KSMF 251120Z 2512/2612 17008KT P6SM SCT200 FM260200 18012G20KT P6SM FEW150 BKN250
Voir NOTAMs / SUP AIP / TFR affectant cet aéroport [VIEW]
Fréquences de communication: [VIEW]

Pistes:

Identifiant RWYQFULongueur (ft)Largeur (ft)SurfaceLDA (ft)
16238035ASPH
34238035ASPH

Coordonnées de l'aéroport

Adresse: Verona United States

Vue satellite de 38CL